Santa Rita de Caldas, Brazil
Current Conditions -  °F | °C
As of 2:00 PM on Tuesday 21 Oct 2014 (Local Time) from SBYS Reporting Station
Broken Clouds Broken Clouds  
Wind Chill: 79°   Ceiling: 10000
Heat Index: 80°   Visibility: 6mi
Dew Point: 59°   Wind: 9mph
Humidity: 51%   Direction: 150°SSE
Pressure: 30.06"   Gusts: NA
Location:  22.03°S, 46.34°W
Report Text: SBYS 211600Z 15008KT 9999 SCT040 BKN100 26/15 Q1018
Loading
Personal Weather Stations






























Interactive Weather Map
Tropical Storm Tracking
New forecast layout! Learn more

10-Day Weather Forecast

Advertisements
Track Severe Weather on mobile